• Join FlightAware (Why Join?)
  • Login
  • US Flag 
10:24AM EDT


 

Airport Tracker/Info


-or-


 

Live Flight TrackerFlight Track Log ✈ DAL776 ✈ 18-Jul-2013 ✈ KATL - KSRQ

Flight Track Log - Related Links

Times and Time Zones

All times are in EDT time to prevent confusion due to time zone crossing. See the DAL776 flight status page for this flight to view local times or setup timezone preferences in your user account.

Time Position Orientation Groundspeed Altitude Reporting Facility
EDT Latitude Longitude Course Direction KTS MPH feet Rate Location/Type
09:26PM 33.6289 -84.3706 194° South 462 532 3,000  Level Atlanta Center
09:27PM 33.6000 -84.2883 113° Southeast 378 435 6,100 3,300 Climbing Atlanta Center
09:28PM 33.5269 -84.2781 173° South 291 335 9,600 3,000 Climbing Atlanta Center
09:29PM 33.2923 -84.3128 194° South  Level FlightAware Approximate
09:29PM 33.4433 -84.2903 187° South 296 341 12,100  Level Atlanta Center
09:30PM 33.1838 -84.3444 194° South  Level FlightAware Approximate
09:30PM 33.3431 -84.3197 194° South 342 394 13,700  Level Atlanta Center
09:31PM 33.0753 -84.3760 194° South  Level FlightAware Approximate
09:31PM 33.2386 -84.3492 193° South 377 434 16,000  Level Atlanta Center
09:32PM 33.1322 -84.3786 193° South 395 455 18,100 2,160 Climbing Atlanta Center
09:33PM 33.0192 -84.4106 193° South 408 470 20,400 2,100 Climbing Atlanta Center
09:34PM 32.9003 -84.4272 187° South 428 493 22,300 1,800 Climbing Atlanta Center
09:35PM 32.7792 -84.4217 178° South 428 493 24,100 1,680 Climbing Atlanta Center
09:36PM 32.6539 -84.4189 179° South 439 505 25,700 1,500 Climbing Atlanta Center
09:38PM 32.4456 -84.4139 179° South 457 526 28,200 1,620 Climbing Jacksonville Center
09:39PM 32.3142 -84.4092 178° South 472 543 30,100 1,980 Climbing Jacksonville Center
09:40PM 32.1825 -84.4072 179° South 472 543 32,200 1,920 Climbing Jacksonville Center
09:41PM 32.0553 -84.4050 179° South 472 543 34,000 1,740 Climbing Jacksonville Center
09:42PM 31.9300 -84.4006 178° South 472 543 35,700 1,500 Climbing Jacksonville Center
09:43PM 31.8008 -84.3861 175° South 467 537 37,000 600 Climbing Jacksonville Center
09:44PM 31.6822 -84.3378 161° South 454 522 37,000  Level Jacksonville Center
09:45PM 31.5617 -84.2944 163° South 454 522 37,000  Level Jacksonville Center
09:46PM 31.4267 -84.2389 161° South 459 528 37,000  Level Jacksonville Center
09:47PM 31.3058 -84.1933 162° South 459 528 37,000  Level Jacksonville Center
09:48PM 31.1853 -84.1481 162° South 459 528 37,000  Level Jacksonville Center
09:49PM 31.0625 -84.1003 162° South 459 528 37,000  Level Jacksonville Center
09:50PM 30.9419 -84.0553 162° South 459 528 37,000  Level Jacksonville Center
09:51PM 30.8233 -84.0078 161° South 459 528 37,000  Level Jacksonville Center
09:52PM 30.7025 -83.9653 163° South 459 528 37,000  Level Jacksonville Center
09:53PM 30.5861 -83.9206 162° South 459 528 37,000 -60 Level Jacksonville Center
09:54PM 30.4839 -83.8833 163° South 437 503 36,900  Descending Jacksonville Center
09:55PM 30.3758 -83.8125 151° Southeast 437 503 37,000  Climbing Jacksonville Center
09:56PM 30.2700 -83.7392 149° Southeast 443 510 36,900 -60 Descending Jacksonville Center
09:57PM 30.1661 -83.6614 147° Southeast 449 517 36,900  Level Jacksonville Center
09:58PM 30.0578 -83.5933 151° Southeast 449 517 36,900  Level Jacksonville Center
09:59PM 29.9539 -83.5158 147° Southeast 449 517 36,900 -420 Level Jacksonville Center
10:00PM 29.8478 -83.4386 148° Southeast 449 517 36,100 -1,020 Descending Jacksonville Center
10:01PM 29.7269 -83.4044 166° South 443 510 34,900 -600 Descending Jacksonville Center
10:02PM 29.6017 -83.3797 170° South 448 516 35,000  Climbing Jacksonville Center
10:03PM 29.4764 -83.3625 173° South 455 524 35,000 -60 Level Jacksonville Center
10:04PM 29.3533 -83.3406 171° South 455 524 34,900 -540 Descending Jacksonville Center
10:05PM 29.2325 -83.3161 170° South 450 518 34,000 -1,920 Descending Jacksonville Center
10:06PM 29.1114 -83.2847 167° South 445 512 31,100 -2,640 Descending Jacksonville Center
10:07PM 28.9883 -83.2533 167° South 450 518 28,800 -1,920 Descending Jacksonville Center
10:08PM 28.8653 -83.2244 168° South 450 518 27,300 -1,560 Descending Jacksonville Center
10:09PM 28.7486 -83.1981 169° South 445 512 25,700 -2,520 Descending Jacksonville Center
10:10PM 28.5667 -83.1500 167° South 402 463 20,800 -3,000 Descending Tampa TRACON
10:11PM 28.4667 -83.1333 172° South 389 448 18,300 -2,220 Descending Tampa TRACON
10:12PM 28.3667 -83.1000 164° South 374 430 16,600 -1,800 Descending Tampa TRACON
10:13PM 28.2500 -83.0833 173° South 366 421 14,600 -1,740 Descending Tampa TRACON
10:14PM 28.1833 -83.0500 156° South 348 400 13,100 -1,740 Descending Tampa TRACON
10:15PM 28.0833 -83.0000 156° South 341 392 11,300 -1,260 Descending Tampa TRACON
10:17PM 27.9476 -83.0068 173° South  Level FlightAware Approximate
10:17PM 27.9167 -82.9167 173° South 291 335 9,300  Level Tampa TRACON
10:18PM 27.8667 -82.8833 149° Southeast 280 322 8,200 -1,320 Descending Tampa TRACON
10:19PM 27.8000 -82.8500 156° South 278 320 6,900 -1,260 Descending Tampa TRACON
10:20PM 27.7167 -82.8167 160° South 270 311 5,600 -1,260 Descending Tampa TRACON
10:21PM 27.6667 -82.7833 149° Southeast 264 304 4,600 -1,260 Descending Tampa TRACON
10:22PM 27.6000 -82.7500 156° South 262 302 3,400 -1,020 Descending Tampa TRACON
10:23PM 27.5333 -82.7167 156° South 244 281 2,600 -540 Descending Tampa TRACON
10:24PM 27.5000 -82.6667 127° Southeast 193 222 2,400 -540 Descending Tampa TRACON
10:25PM 27.4667 -82.6333 138° Southeast 175 201 1,600 -780 Descending Tampa TRACON
10:26PM 27.4333 -82.6000 138° Southeast 136 157 900 -720 Descending Tampa TRACON